createdAt,value
2023-03-10T00:00:39.993Z,1.45
2023-03-10T00:03:07.813Z,1.31
2023-03-10T00:05:36.383Z,1.35
2023-03-10T00:08:03.625Z,1.44
2023-03-10T00:10:30.638Z,1.56
2023-03-10T00:12:57.803Z,1.53
2023-03-10T00:15:26.424Z,1.54
2023-03-10T00:17:55.808Z,1.38
2023-03-10T00:20:23.785Z,1.51
2023-03-10T00:22:50.834Z,1.37
2023-03-10T00:25:17.928Z,1.33
2023-03-10T00:27:44.938Z,1.32
2023-03-10T00:30:12.292Z,1.45
2023-03-10T00:32:39.515Z,1.51
2023-03-10T00:35:07.354Z,1.46
2023-03-10T00:37:38.191Z,1.33
2023-03-10T00:40:10.957Z,1.41
2023-03-10T00:42:38.026Z,1.42
2023-03-10T00:45:05.745Z,1.51
2023-03-10T00:47:33.155Z,1.38
2023-03-10T00:50:00.420Z,1.26
2023-03-10T00:52:27.477Z,1.37
2023-03-10T00:54:55.019Z,1.40
2023-03-10T00:57:22.009Z,1.43
2023-03-10T00:59:51.893Z,1.37
2023-03-10T01:02:20.515Z,1.42
2023-03-10T01:04:48.509Z,1.29
2023-03-10T01:07:15.644Z,1.44
2023-03-10T01:09:42.661Z,1.40
2023-03-10T01:12:09.868Z,1.36
2023-03-10T01:14:37.160Z,1.33
2023-03-10T01:17:05.530Z,1.24
2023-03-10T01:19:32.834Z,1.38
2023-03-10T01:21:59.858Z,1.51
2023-03-10T01:24:26.874Z,1.43
2023-03-10T01:26:53.894Z,1.29
2023-03-10T01:29:20.972Z,1.41
2023-03-10T01:31:48.101Z,1.39
2023-03-10T01:34:15.250Z,1.30
2023-03-10T01:36:42.752Z,1.29
2023-03-10T01:39:09.802Z,1.39
2023-03-10T01:41:42.075Z,1.30
2023-03-10T01:44:20.130Z,1.39
2023-03-10T01:46:55.352Z,1.46
2023-03-10T01:49:37.598Z,1.28
2023-03-10T01:52:17.876Z,1.26
2023-03-10T01:55:13.777Z,1.38
2023-03-10T01:57:49.342Z,1.50
2023-03-10T02:00:17.412Z,1.47
2023-03-10T02:03:17.732Z,1.48
2023-03-10T02:05:51.704Z,1.57
2023-03-10T02:08:20.565Z,1.53
2023-03-10T02:10:48.573Z,1.46
2023-03-10T02:13:15.619Z,1.45
2023-03-10T02:15:42.837Z,1.52
2023-03-10T02:18:13.806Z,1.55
2023-03-10T02:20:53.905Z,1.65
2023-03-10T02:24:07.603Z,1.62
2023-03-10T02:27:22.891Z,1.45
2023-03-10T02:30:04.064Z,1.51
2023-03-10T02:32:37.214Z,1.47
2023-03-10T02:35:05.688Z,1.46
2023-03-10T02:37:35.440Z,1.47
2023-03-10T02:40:05.298Z,1.27
2023-03-10T02:42:36.107Z,1.35
2023-03-10T02:45:04.284Z,1.46
2023-03-10T02:47:31.321Z,1.24
2023-03-10T02:49:58.305Z,1.28
2023-03-10T02:52:50.564Z,1.36
2023-03-10T02:55:18.881Z,1.33
2023-03-10T02:57:45.906Z,1.36
2023-03-10T03:00:13.631Z,1.40
2023-03-10T03:02:40.623Z,1.25
2023-03-10T03:05:08.470Z,1.42
2023-03-10T03:07:36.273Z,1.43
2023-03-10T03:10:04.721Z,1.48
2023-03-10T03:12:31.791Z,1.44
2023-03-10T03:14:58.890Z,1.48
2023-03-10T03:17:25.876Z,1.47
2023-03-10T03:19:52.967Z,1.33
2023-03-10T03:22:19.960Z,1.33
2023-03-10T03:24:46.987Z,1.34
2023-03-10T03:27:14.001Z,1.24
2023-03-10T03:29:41.018Z,1.33
2023-03-10T03:32:08.235Z,1.41
2023-03-10T03:35:15.934Z,1.43
2023-03-10T03:37:44.116Z,1.41
2023-03-10T03:40:13.465Z,1.25
2023-03-10T03:42:46.676Z,1.21
2023-03-10T03:45:17.636Z,1.33
2023-03-10T03:47:45.360Z,1.17
2023-03-10T03:50:15.761Z,1.35
2023-03-10T03:52:43.841Z,1.38
2023-03-10T03:55:13.203Z,1.26
2023-03-10T03:57:40.856Z,1.24
2023-03-10T04:00:14.408Z,0.94
2023-03-10T04:02:41.504Z,1.09
2023-03-10T04:05:09.098Z,1.19
2023-03-10T04:07:38.776Z,1.21
2023-03-10T04:10:08.766Z,1.15
2023-03-10T04:12:35.794Z,1.24
2023-03-10T04:15:02.901Z,1.30
2023-03-10T04:17:29.967Z,1.36
2023-03-10T04:20:06.553Z,1.41
2023-03-10T04:22:35.345Z,1.35
2023-03-10T04:25:02.785Z,1.43
2023-03-10T04:27:30.718Z,1.34
2023-03-10T04:29:57.957Z,1.46
2023-03-10T04:32:25.369Z,1.35
2023-03-10T04:34:52.473Z,1.23
2023-03-10T04:37:21.171Z,1.42
2023-03-10T04:39:48.295Z,1.37
2023-03-10T04:42:15.454Z,1.22
2023-03-10T04:44:42.611Z,1.36
2023-03-10T04:47:09.651Z,1.44
2023-03-10T04:49:38.562Z,1.35
2023-03-10T04:52:05.930Z,1.39
2023-03-10T04:54:32.944Z,1.45
2023-03-10T04:57:00.226Z,1.48
2023-03-10T04:59:27.454Z,1.46
2023-03-10T05:01:54.794Z,1.49
2023-03-10T05:04:22.442Z,1.52
2023-03-10T05:06:53.402Z,1.49
2023-03-10T05:09:20.678Z,1.44
2023-03-10T05:11:47.808Z,1.39
2023-03-10T05:14:15.508Z,1.35
2023-03-10T05:16:42.854Z,1.49
2023-03-10T05:19:10.006Z,1.47
2023-03-10T05:21:37.196Z,1.38
2023-03-10T05:24:04.403Z,1.52
2023-03-10T05:26:34.614Z,1.53
2023-03-10T05:29:01.868Z,1.59
2023-03-10T05:31:29.020Z,1.63
2023-03-10T05:33:56.630Z,1.39
2023-03-10T05:36:24.182Z,1.56
2023-03-10T05:38:51.280Z,1.66
2023-03-10T05:41:18.872Z,1.54
2023-03-10T05:43:45.961Z,1.55
2023-03-10T05:46:13.257Z,1.60
2023-03-10T05:48:40.314Z,1.90
2023-03-10T05:51:12.598Z,1.91
2023-03-10T05:53:40.978Z,1.94
2023-03-10T05:56:15.151Z,1.81
2023-03-10T05:58:43.115Z,1.90
2023-03-10T06:01:10.932Z,2.01
2023-03-10T06:03:38.489Z,1.97
2023-03-10T06:06:07.296Z,2.03
2023-03-10T06:08:34.976Z,2.05
2023-03-10T06:11:02.682Z,2.06
2023-03-10T06:13:30.111Z,2.16
2023-03-10T06:16:00.608Z,2.21
2023-03-10T06:18:28.833Z,2.21
2023-03-10T06:20:56.446Z,2.29
2023-03-10T06:23:24.791Z,2.47
2023-03-10T06:26:03.096Z,2.48
2023-03-10T06:28:33.817Z,2.57
2023-03-10T06:31:03.548Z,2.53
2023-03-10T06:33:31.335Z,2.44
2023-03-10T06:35:58.781Z,2.70
2023-03-10T06:38:26.394Z,2.60
2023-03-10T06:40:54.342Z,2.57
2023-03-10T06:43:21.528Z,2.65
2023-03-10T06:45:50.142Z,2.79
2023-03-10T06:48:17.438Z,2.80
2023-03-10T06:50:48.211Z,2.85
2023-03-10T06:53:21.212Z,2.79
2023-03-10T06:56:09.520Z,2.85
2023-03-10T06:58:37.891Z,2.92
2023-03-10T07:01:07.629Z,2.95
2023-03-10T07:03:36.229Z,3.11
2023-03-10T07:06:03.420Z,3.07
2023-03-10T07:08:30.698Z,3.20
2023-03-10T07:10:57.979Z,3.23
2023-03-10T07:13:25.000Z,3.34
2023-03-10T07:15:52.118Z,3.31
2023-03-10T07:18:19.562Z,3.27
2023-03-10T07:20:47.831Z,3.34
2023-03-10T07:23:15.910Z,3.42
2023-03-10T07:25:43.212Z,3.42
2023-03-10T07:28:10.332Z,3.43
2023-03-10T07:30:38.701Z,3.49
2023-03-10T07:33:05.946Z,3.57
2023-03-10T07:35:35.532Z,3.58
2023-03-10T07:38:04.602Z,3.71
2023-03-10T07:40:31.597Z,3.80
2023-03-10T07:42:58.744Z,3.89
2023-03-10T07:45:27.300Z,3.87
2023-03-10T07:47:55.266Z,4.12
2023-03-10T07:50:22.819Z,4.20
2023-03-10T07:52:49.996Z,4.35
2023-03-10T07:55:17.798Z,4.30
2023-03-10T07:57:45.079Z,4.35
2023-03-10T08:00:15.940Z,4.28
2023-03-10T08:02:43.471Z,4.45
2023-03-10T08:05:11.931Z,4.54
2023-03-10T08:07:39.154Z,4.79
2023-03-10T08:10:07.447Z,4.85
2023-03-10T08:12:34.685Z,4.73
2023-03-10T08:15:01.971Z,4.76
2023-03-10T08:17:33.617Z,4.81
2023-03-10T08:20:01.105Z,4.88
2023-03-10T08:22:28.802Z,4.97
2023-03-10T08:24:56.401Z,4.94
2023-03-10T08:27:23.750Z,4.82
2023-03-10T08:29:50.748Z,4.79
2023-03-10T08:32:18.834Z,4.74
2023-03-10T08:34:46.400Z,4.69
2023-03-10T08:37:13.662Z,4.80
2023-03-10T08:39:40.675Z,4.84
2023-03-10T08:42:11.700Z,4.80
2023-03-10T08:44:39.812Z,4.96
2023-03-10T08:47:07.660Z,4.94
2023-03-10T08:49:34.920Z,5.12
2023-03-10T08:52:02.454Z,5.15
2023-03-10T08:54:32.305Z,5.38
2023-03-10T08:56:59.821Z,5.52
2023-03-10T08:59:27.060Z,5.58
2023-03-10T09:01:54.084Z,5.58
2023-03-10T09:04:21.169Z,5.61
2023-03-10T09:06:48.196Z,5.93
2023-03-10T09:09:15.320Z,6.11
2023-03-10T09:11:43.872Z,6.13
2023-03-10T09:14:12.716Z,6.10
2023-03-10T09:16:40.786Z,6.15
2023-03-10T09:19:08.119Z,6.28
2023-03-10T09:21:35.215Z,6.44
2023-03-10T09:24:03.467Z,6.43
2023-03-10T09:26:31.096Z,6.34
2023-03-10T09:28:58.115Z,6.43
2023-03-10T09:31:30.494Z,6.44
2023-03-10T09:33:57.521Z,6.45
2023-03-10T09:36:24.783Z,6.33
2023-03-10T09:38:52.153Z,6.20
2023-03-10T09:41:49.720Z,6.24
2023-03-10T09:44:45.270Z,6.07
2023-03-10T09:47:42.041Z,6.17
2023-03-10T09:50:42.087Z,6.08
2023-03-10T09:53:52.225Z,6.10
2023-03-10T09:56:33.942Z,6.14
2023-03-10T09:59:37.673Z,6.00
2023-03-10T10:02:23.276Z,6.04
2023-03-10T10:05:03.727Z,6.13
2023-03-10T10:07:44.098Z,6.16
2023-03-10T10:10:24.758Z,6.21
2023-03-10T10:12:54.618Z,6.16
2023-03-10T10:15:28.027Z,6.32
2023-03-10T10:18:20.337Z,6.38
2023-03-10T10:20:59.299Z,6.47
2023-03-10T10:23:43.899Z,6.53
2023-03-10T10:26:15.973Z,6.67
2023-03-10T10:29:12.733Z,6.64
2023-03-10T10:31:39.867Z,6.61
2023-03-10T10:34:22.719Z,6.85
2023-03-10T10:36:55.158Z,6.99
2023-03-10T10:39:28.125Z,7.05
2023-03-10T10:42:11.835Z,7.24
2023-03-10T10:44:44.710Z,7.21
2023-03-10T10:47:34.487Z,7.30
2023-03-10T10:50:20.243Z,7.44
2023-03-10T10:52:53.053Z,7.52
2023-03-10T10:55:34.781Z,7.65
2023-03-10T10:58:23.356Z,7.67
2023-03-10T11:01:09.748Z,8.07
2023-03-10T11:03:43.020Z,8.28
2023-03-10T11:06:27.233Z,8.46
2023-03-10T11:09:14.497Z,8.44
2023-03-10T11:12:08.756Z,8.42
2023-03-10T11:14:52.475Z,8.52
2023-03-10T11:17:43.785Z,8.59
2023-03-10T11:20:29.172Z,8.64
2023-03-10T11:23:29.660Z,8.90
2023-03-10T11:26:10.925Z,9.03
2023-03-10T11:28:46.774Z,9.14
2023-03-10T11:31:45.136Z,9.26
2023-03-10T11:34:32.040Z,9.45
2023-03-10T11:37:16.198Z,9.63
2023-03-10T11:40:43.148Z,9.70
2023-03-10T11:43:30.994Z,9.76
2023-03-10T11:46:28.690Z,9.92
2023-03-10T11:49:11.015Z,10.15
2023-03-10T11:52:01.355Z,10.29
2023-03-10T11:54:38.256Z,10.43
2023-03-10T11:57:17.993Z,10.48
2023-03-10T11:59:57.677Z,10.52
2023-03-10T12:03:00.668Z,10.92
2023-03-10T12:05:31.855Z,11.18
2023-03-10T12:08:02.946Z,11.47
2023-03-10T12:10:31.642Z,11.36
2023-03-10T12:12:59.285Z,11.52
2023-03-10T12:15:40.018Z,11.55
2023-03-10T12:18:08.245Z,11.66
2023-03-10T12:20:36.461Z,11.60
2023-03-10T12:23:09.517Z,11.62
2023-03-10T12:25:38.291Z,11.56
2023-03-10T12:28:17.575Z,11.56
2023-03-10T12:31:00.700Z,11.62
2023-03-10T12:33:34.319Z,11.70
2023-03-10T12:36:25.240Z,11.59
2023-03-10T12:38:54.753Z,11.51
2023-03-10T12:41:27.961Z,11.58
2023-03-10T12:43:57.639Z,11.50
2023-03-10T12:46:43.541Z,11.48
2023-03-10T12:49:33.677Z,11.58
2023-03-10T12:52:24.917Z,11.80
2023-03-10T12:55:18.156Z,12.04
2023-03-10T12:58:14.279Z,12.32
2023-03-10T13:01:01.522Z,12.55
2023-03-10T13:03:43.937Z,12.82
2023-03-10T13:06:11.050Z,12.90
2023-03-10T13:08:55.187Z,13.05
2023-03-10T13:11:39.965Z,13.22
2023-03-10T13:14:22.923Z,13.35
2023-03-10T13:17:00.190Z,13.41
2023-03-10T13:19:32.207Z,13.38
2023-03-10T13:21:59.876Z,13.42
2023-03-10T13:24:36.290Z,13.40
2023-03-10T13:27:24.003Z,13.42
2023-03-10T13:30:20.079Z,13.24
2023-03-10T13:33:02.614Z,13.20
2023-03-10T13:35:36.174Z,13.31
2023-03-10T13:38:19.116Z,13.20
2023-03-10T13:41:10.781Z,13.15
2023-03-10T13:43:48.582Z,13.09
2023-03-10T13:46:22.981Z,13.15
2023-03-10T13:48:50.740Z,13.18
2023-03-10T13:51:32.398Z,13.22
2023-03-10T13:54:21.921Z,13.23
2023-03-10T13:57:17.738Z,13.07
2023-03-10T13:59:46.967Z,13.11
2023-03-10T14:02:35.651Z,13.09
2023-03-10T14:05:06.304Z,13.14
2023-03-10T14:07:38.224Z,13.27
2023-03-10T14:10:05.118Z,13.29
2023-03-10T14:12:58.555Z,13.21
2023-03-10T14:15:28.070Z,13.19
2023-03-10T14:18:07.185Z,13.25
2023-03-10T14:20:40.342Z,13.18
2023-03-10T14:23:19.427Z,13.12
2023-03-10T14:25:48.536Z,13.24
2023-03-10T14:28:24.950Z,13.15
2023-03-10T14:30:52.434Z,13.12
2023-03-10T14:33:19.647Z,13.28
2023-03-10T14:35:47.124Z,13.18
2023-03-10T14:38:14.280Z,13.20
2023-03-10T14:40:50.587Z,13.18
2023-03-10T14:43:23.043Z,13.14
2023-03-10T14:45:52.364Z,12.95
2023-03-10T14:48:23.792Z,13.05
2023-03-10T14:50:51.210Z,13.07
2023-03-10T14:53:24.015Z,12.90
2023-03-10T14:55:54.236Z,12.94
2023-03-10T14:58:25.554Z,12.93
2023-03-10T15:00:53.076Z,12.95
2023-03-10T15:03:20.347Z,12.98
2023-03-10T15:05:49.294Z,12.90
2023-03-10T15:08:17.957Z,12.87
2023-03-10T15:10:50.436Z,12.83
2023-03-10T15:13:20.998Z,12.87
2023-03-10T15:15:49.205Z,12.81
2023-03-10T15:18:20.448Z,12.79
2023-03-10T15:20:47.831Z,12.77
2023-03-10T15:23:18.847Z,12.73
2023-03-10T15:25:46.945Z,12.67
2023-03-10T15:28:14.248Z,12.65
2023-03-10T15:30:42.108Z,12.59
2023-03-10T15:33:10.736Z,12.56
2023-03-10T15:35:39.066Z,12.50
2023-03-10T15:38:06.687Z,12.49
2023-03-10T15:40:34.939Z,12.43
2023-03-10T15:43:02.259Z,12.41
2023-03-10T15:45:31.212Z,12.33
2023-03-10T15:47:58.580Z,12.28
2023-03-10T15:50:25.876Z,12.23
2023-03-10T15:52:56.496Z,12.20
2023-03-10T15:55:24.519Z,12.23
2023-03-10T15:57:52.247Z,12.15
2023-03-10T16:00:23.177Z,12.11
2023-03-10T16:02:50.898Z,12.09
2023-03-10T16:05:19.340Z,12.08
2023-03-10T16:07:46.842Z,12.06
2023-03-10T16:10:18.668Z,12.00
2023-03-10T16:12:46.004Z,11.98
2023-03-10T16:15:16.935Z,11.95
2023-03-10T16:17:45.153Z,11.92
2023-03-10T16:20:13.893Z,11.89
2023-03-10T16:22:43.056Z,11.79
2023-03-10T16:25:19.012Z,11.75
2023-03-10T16:27:46.871Z,11.73
2023-03-10T16:30:17.067Z,11.69
2023-03-10T16:32:49.359Z,11.64
2023-03-10T16:35:17.659Z,11.63
2023-03-10T16:37:44.904Z,11.60
2023-03-10T16:40:12.638Z,11.57
2023-03-10T16:42:43.326Z,11.56
2023-03-10T16:45:11.095Z,11.52
2023-03-10T16:47:38.390Z,11.49
2023-03-10T16:50:06.023Z,11.48
2023-03-10T16:52:41.142Z,11.45
2023-03-10T16:55:16.769Z,11.46
2023-03-10T16:57:45.963Z,11.43
2023-03-10T17:00:14.139Z,11.39
2023-03-10T17:02:41.164Z,11.36
2023-03-10T17:05:10.158Z,11.40
2023-03-10T17:07:46.489Z,11.34
2023-03-10T17:10:20.539Z,11.32
2023-03-10T17:12:47.599Z,11.31
2023-03-10T17:15:14.698Z,11.27
2023-03-10T17:17:41.837Z,11.26
2023-03-10T17:20:09.776Z,11.22
2023-03-10T17:22:37.931Z,11.23
2023-03-10T17:25:06.459Z,11.19
2023-03-10T17:27:33.543Z,11.14
2023-03-10T17:30:00.963Z,11.10
2023-03-10T17:32:28.517Z,11.10
2023-03-10T17:34:56.067Z,11.08
2023-03-10T17:37:23.242Z,11.05
2023-03-10T17:39:50.301Z,11.05
2023-03-10T17:42:17.591Z,11.03
2023-03-10T17:44:44.632Z,11.03
2023-03-10T17:47:12.328Z,11.00
2023-03-10T17:49:41.098Z,10.98
2023-03-10T17:52:08.515Z,10.93
2023-03-10T17:54:35.797Z,10.93
2023-03-10T17:57:02.969Z,10.88
2023-03-10T17:59:31.939Z,10.86
2023-03-10T18:01:59.183Z,10.82
2023-03-10T18:04:29.709Z,10.83
2023-03-10T18:06:56.828Z,10.77
2023-03-10T18:09:23.871Z,10.78
2023-03-10T18:11:50.965Z,10.74
2023-03-10T18:14:18.142Z,10.72
2023-03-10T18:16:45.285Z,10.73
2023-03-10T18:19:12.648Z,10.66
2023-03-10T18:21:39.758Z,10.67
2023-03-10T18:24:08.413Z,10.62
2023-03-10T18:26:36.656Z,10.65
2023-03-10T18:29:03.983Z,10.60
2023-03-10T18:31:34.490Z,10.55
2023-03-10T18:34:02.616Z,10.54
2023-03-10T18:36:30.608Z,10.52
2023-03-10T18:38:58.112Z,10.52
2023-03-10T18:41:30.720Z,10.49
2023-03-10T18:43:58.273Z,10.47
2023-03-10T18:46:25.595Z,10.37
2023-03-10T18:48:55.815Z,10.39
2023-03-10T18:51:25.792Z,10.45
2023-03-10T18:53:53.467Z,10.42
2023-03-10T18:56:20.971Z,10.25
2023-03-10T18:58:47.987Z,10.32
2023-03-10T19:01:15.785Z,10.29
2023-03-10T19:03:42.993Z,10.28
2023-03-10T19:06:10.798Z,10.26
2023-03-10T19:08:39.870Z,10.23
2023-03-10T19:11:07.369Z,10.32
2023-03-10T19:13:35.086Z,10.27
2023-03-10T19:16:08.083Z,10.33
2023-03-10T19:18:35.945Z,10.28
2023-03-10T19:21:03.895Z,10.19
2023-03-10T19:23:32.277Z,10.13
2023-03-10T19:25:59.513Z,10.03
2023-03-10T19:28:26.600Z,10.12
2023-03-10T19:30:53.667Z,10.03
2023-03-10T19:33:20.699Z,9.97
2023-03-10T19:35:47.746Z,10.04
2023-03-10T19:38:14.806Z,9.99
2023-03-10T19:40:45.273Z,10.03
2023-03-10T19:43:12.251Z,9.98
2023-03-10T19:45:39.221Z,10.00
2023-03-10T19:48:06.586Z,9.99
2023-03-10T19:50:33.684Z,9.94
2023-03-10T19:53:00.893Z,9.99
2023-03-10T19:55:29.559Z,9.99
2023-03-10T19:57:57.787Z,9.97
2023-03-10T20:00:31.271Z,9.97
2023-03-10T20:02:58.893Z,9.99
2023-03-10T20:05:26.966Z,9.95
2023-03-10T20:07:54.304Z,9.97
2023-03-10T20:10:21.521Z,9.97
2023-03-10T20:12:48.649Z,9.95
2023-03-10T20:15:17.320Z,9.93
2023-03-10T20:17:44.871Z,9.91
2023-03-10T20:20:15.167Z,9.93
2023-03-10T20:22:47.639Z,9.89
2023-03-10T20:25:20.964Z,9.90
2023-03-10T20:27:51.617Z,9.91
2023-03-10T20:30:29.461Z,9.90
2023-03-10T20:32:58.523Z,9.95
2023-03-10T20:35:27.786Z,9.90
2023-03-10T20:37:54.889Z,9.86
2023-03-10T20:40:24.376Z,10.06
2023-03-10T20:42:54.176Z,9.96
2023-03-10T20:45:22.997Z,9.83
2023-03-10T20:47:50.388Z,9.77
2023-03-10T20:50:17.738Z,9.83
2023-03-10T20:52:44.855Z,9.88
2023-03-10T20:55:20.235Z,9.76
2023-03-10T20:57:48.866Z,9.82
2023-03-10T21:00:18.757Z,9.75
2023-03-10T21:02:49.035Z,9.78
2023-03-10T21:05:16.578Z,9.76
2023-03-10T21:07:43.651Z,9.79
2023-03-10T21:10:13.392Z,9.81
2023-03-10T21:12:43.067Z,9.79
2023-03-10T21:15:13.877Z,9.74
2023-03-10T21:17:41.317Z,9.74
2023-03-10T21:20:09.531Z,9.72
2023-03-10T21:22:39.054Z,9.71
2023-03-10T21:25:09.536Z,9.71
2023-03-10T21:27:36.768Z,9.85
2023-03-10T21:30:09.885Z,9.71
2023-03-10T21:32:38.013Z,9.65
2023-03-10T21:35:06.359Z,9.60
2023-03-10T21:37:33.605Z,9.59
2023-03-10T21:40:01.332Z,9.62
2023-03-10T21:42:28.310Z,9.56
2023-03-10T21:44:55.978Z,9.60
2023-03-10T21:47:23.018Z,9.58
2023-03-10T21:49:50.044Z,9.58
2023-03-10T21:52:17.185Z,9.52
2023-03-10T21:54:44.661Z,9.60
2023-03-10T21:57:11.959Z,9.58
2023-03-10T21:59:39.317Z,9.51
2023-03-10T22:02:08.254Z,9.50
2023-03-10T22:04:36.606Z,9.50
2023-03-10T22:07:03.639Z,9.52
2023-03-10T22:09:31.986Z,9.54
2023-03-10T22:11:58.989Z,9.60
2023-03-10T22:14:26.618Z,9.57
2023-03-10T22:16:53.629Z,9.52
2023-03-10T22:19:20.715Z,9.57
2023-03-10T22:21:47.720Z,9.55
2023-03-10T22:24:14.828Z,9.50
2023-03-10T22:26:42.127Z,9.55
2023-03-10T22:29:09.432Z,9.55
2023-03-10T22:31:36.639Z,9.55
2023-03-10T22:34:04.088Z,9.60
2023-03-10T22:36:31.376Z,9.49
2023-03-10T22:38:59.553Z,9.67
2023-03-10T22:41:28.003Z,9.51
2023-03-10T22:43:58.308Z,9.53
2023-03-10T22:46:25.900Z,9.51
2023-03-10T22:48:52.976Z,9.59
2023-03-10T22:51:19.978Z,9.60
2023-03-10T22:53:47.135Z,9.49
2023-03-10T22:56:14.777Z,9.44
2023-03-10T22:58:42.060Z,9.49
2023-03-10T23:01:09.299Z,9.40
2023-03-10T23:03:36.467Z,9.44
2023-03-10T23:06:06.702Z,9.53
2023-03-10T23:08:37.536Z,9.44
2023-03-10T23:11:12.877Z,9.43
2023-03-10T23:13:40.448Z,9.40
2023-03-10T23:16:08.653Z,9.41
2023-03-10T23:18:36.219Z,9.37
2023-03-10T23:21:04.109Z,9.36
2023-03-10T23:23:32.040Z,9.38
2023-03-10T23:25:59.306Z,9.33
2023-03-10T23:28:26.437Z,9.40
2023-03-10T23:30:54.394Z,9.47
2023-03-10T23:33:24.221Z,9.39
2023-03-10T23:35:54.338Z,9.43
2023-03-10T23:38:25.059Z,9.36
2023-03-10T23:40:54.071Z,9.32
2023-03-10T23:43:21.635Z,9.39
2023-03-10T23:45:48.912Z,9.42
2023-03-10T23:48:18.649Z,9.39
2023-03-10T23:50:48.323Z,9.46
2023-03-10T23:53:18.060Z,9.40
2023-03-10T23:55:47.432Z,9.35
2023-03-10T23:58:17.308Z,9.33
